Time;durP1;ratioP1;P1;durP2;ratioP2;P2;SDS_P1;SDS_P2;PMS_P1;PMS_P2;Temp;Humidity;BMP_temperature;BMP_pressure;BME280_temperature;BME280_humidity;BME280_pressure;Samples;Min_cycle;Max_cycle;Signal;HPM_P1;HPM_P2
2022/06/05 00:01:14;;;;;;;12.75;8.07;;;14.30;99.90;;;;;;5023034;23;20042;-65
2022/06/05 00:03:58;;;;;;;12.55;9.07;;;14.30;99.90;;;;;;5000606;28;20133;-69
2022/06/05 00:06:34;;;;;;;11.93;8.07;;;14.30;99.90;;;;;;4981686;28;20134;-69
2022/06/05 00:09:16;;;;;;;10.13;7.72;;;14.20;99.90;;;;;;4993793;28;20045;-66
2022/06/05 00:11:53;;;;;;;14.52;7.97;;;14.20;99.90;;;;;;5007303;28;20669;-65
2022/06/05 00:14:20;;;;;;;13.85;8.25;;;14.20;99.90;;;;;;4992087;28;20049;-65
2022/06/05 00:16:46;;;;;;;11.60;8.32;;;14.20;99.90;;;;;;5003863;28;20034;-65
2022/06/05 00:19:12;;;;;;;14.05;8.75;;;14.10;99.90;;;;;;4990612;28;20091;-65
2022/06/05 00:21:38;;;;;;;12.10;8.40;;;14.10;99.90;;;;;;4996929;28;20045;-66
2022/06/05 00:24:04;;;;;;;14.77;8.65;;;14.10;99.90;;;;;;5004494;28;20038;-66
2022/06/05 00:26:30;;;;;;;13.05;8.38;;;14.10;99.90;;;;;;5002802;28;20400;-66
2022/06/05 00:29:20;;;;;;;13.63;8.38;;;14.00;99.90;;;;;;4984372;28;20042;-69
2022/06/05 00:32:10;;;;;;;12.48;8.30;;;14.00;99.90;;;;;;4985840;28;20121;-66
2022/06/05 00:34:36;;;;;;;14.57;9.27;;;14.00;99.90;;;;;;4998309;28;20047;-65
2022/06/05 00:37:04;;;;;;;13.00;8.35;;;14.00;99.90;;;;;;5014516;28;20091;-65
2022/06/05 00:39:56;;;;;;;12.15;8.48;;;14.00;99.90;;;;;;5004498;28;20038;-65
2022/06/05 00:42:24;;;;;;;13.30;8.57;;;13.90;99.90;;;;;;4981321;28;20046;-66
2022/06/05 00:44:55;;;;;;;14.45;8.68;;;14.00;99.90;;;;;;4987324;28;20052;-66
2022/06/05 00:47:28;;;;;;;14.30;8.63;;;13.90;99.90;;;;;;5017589;28;20050;-67
2022/06/05 00:49:59;;;;;;;15.13;9.35;;;13.90;99.90;;;;;;5005982;28;20419;-67
2022/06/05 00:52:30;;;;;;;14.90;9.18;;;13.90;99.90;;;;;;5013304;28;20038;-67
2022/06/05 00:54:56;;;;;;;12.90;8.80;;;13.80;99.90;;;;;;4996748;28;20042;-66
2022/06/05 00:57:26;;;;;;;15.90;8.82;;;13.90;99.90;;;;;;4980749;28;20116;-74
2022/06/05 00:59:51;;;;;;;16.92;9.27;;;13.90;99.90;;;;;;4998684;28;20034;-67
2022/06/05 01:02:18;;;;;;;15.82;9.45;;;13.80;99.90;;;;;;5010135;28;20041;-70
2022/06/05 01:04:47;;;;;;;14.77;9.70;;;13.80;99.90;;;;;;5023766;28;20404;-69
2022/06/05 01:07:13;;;;;;;16.10;9.98;;;13.80;99.90;;;;;;4992004;28;20049;-67
2022/06/05 01:09:41;;;;;;;14.93;10.00;;;13.80;99.90;;;;;;5008637;28;20369;-65
2022/06/05 01:12:24;;;;;;;11.70;9.32;;;13.80;99.90;;;;;;5017253;28;20050;-66
2022/06/05 01:15:10;;;;;;;15.45;9.77;;;13.80;99.90;;;;;;5009885;28;20038;-69
2022/06/05 01:17:53;;;;;;;16.70;10.07;;;13.80;99.90;;;;;;4992747;28;20057;-65
2022/06/05 01:20:30;;;;;;;15.52;10.50;;;13.70;99.90;;;;;;4987506;28;20103;-66
2022/06/05 01:23:32;;;;;;;14.98;10.35;;;13.70;99.90;;;;;;4977846;28;20053;-65
2022/06/05 01:26:03;;;;;;;14.15;10.07;;;13.70;99.90;;;;;;4924538;29;20048;-65
2022/06/05 01:28:33;;;;;;;15.90;10.20;;;13.70;99.90;;;;;;4984798;28;20054;-67
2022/06/05 01:31:18;;;;;;;19.05;10.70;;;13.70;99.90;;;;;;5002116;28;20439;-66
2022/06/05 01:34:02;;;;;;;13.43;10.02;;;13.60;99.90;;;;;;5004573;28;20042;-66
2022/06/05 01:36:39;;;;;;;16.27;10.52;;;13.70;99.90;;;;;;5002381;28;20042;-66
2022/06/05 01:39:24;;;;;;;15.43;10.60;;;13.60;99.90;;;;;;5004226;28;20047;-67
2022/06/05 01:41:54;;;;;;;19.52;10.52;;;13.60;99.90;;;;;;5009459;28;20052;-70
2022/06/05 01:44:28;;;;;;;14.93;9.98;;;13.60;99.90;;;;;;5007561;28;20430;-66
2022/06/05 01:46:57;;;;;;;15.70;10.70;;;13.60;99.90;;;;;;5003716;28;20052;-71
2022/06/05 01:49:30;;;;;;;16.10;10.80;;;13.50;99.90;;;;;;4988743;28;20495;-69
2022/06/05 01:52:06;;;;;;;14.15;10.77;;;13.60;99.90;;;;;;4990760;28;20040;-67
2022/06/05 01:54:44;;;;;;;13.82;10.82;;;13.50;99.90;;;;;;5009673;28;20061;-66
2022/06/05 01:57:13;;;;;;;15.00;11.18;;;13.50;99.90;;;;;;4983294;28;20033;-66
2022/06/05 01:59:57;;;;;;;16.65;11.13;;;13.50;99.90;;;;;;4988179;28;20046;-69
2022/06/05 02:02:42;;;;;;;17.08;11.38;;;13.50;99.90;;;;;;4979449;28;20478;-69
2022/06/05 02:05:17;;;;;;;16.05;11.43;;;13.40;99.90;;;;;;4994299;28;20412;-66
2022/06/05 02:07:47;;;;;;;20.13;11.90;;;13.50;99.90;;;;;;4987502;28;20269;-67
2022/06/05 02:10:25;;;;;;;15.82;11.73;;;13.40;99.90;;;;;;4986347;28;20283;-71
2022/06/05 02:12:53;;;;;;;16.98;11.82;;;13.40;99.90;;;;;;4993306;28;20068;-68
2022/06/05 02:15:20;;;;;;;16.33;11.90;;;13.40;99.90;;;;;;4980439;28;20038;-70
2022/06/05 02:17:47;;;;;;;17.13;11.68;;;13.40;99.90;;;;;;4985599;28;20122;-66
2022/06/05 02:20:12;;;;;;;20.02;12.23;;;13.40;99.90;;;;;;4989950;28;20069;-66
2022/06/05 02:22:43;;;;;;;19.95;12.55;;;13.40;99.90;;;;;;5005734;28;20080;-66
2022/06/05 02:25:10;;;;;;;15.43;11.73;;;13.40;99.90;;;;;;5005504;28;20101;-65
2022/06/05 02:27:36;;;;;;;17.48;12.63;;;13.40;99.90;;;;;;5009940;28;20121;-65
2022/06/05 02:30:04;;;;;;;17.27;13.13;;;13.40;99.90;;;;;;5011942;28;20522;-66
2022/06/05 02:32:33;;;;;;;19.00;12.50;;;13.40;99.90;;;;;;4969897;28;20081;-68
2022/06/05 02:35:16;;;;;;;20.40;12.68;;;13.30;99.90;;;;;;4982556;28;20408;-66
2022/06/05 02:38:04;;;;;;;22.08;13.15;;;13.30;99.90;;;;;;4984413;28;20084;-68
2022/06/05 02:40:33;;;;;;;14.73;12.45;;;13.30;99.90;;;;;;4997921;28;20073;-67
2022/06/05 02:43:04;;;;;;;19.70;13.30;;;13.30;99.90;;;;;;4988770;28;20046;-66
2022/06/05 02:45:35;;;;;;;21.43;13.33;;;13.30;99.90;;;;;;4987210;28;20053;-68
2022/06/05 02:48:09;;;;;;;21.17;13.60;;;13.30;99.90;;;;;;5001638;28;20268;-66
2022/06/05 02:50:50;;;;;;;19.48;13.13;;;13.30;99.90;;;;;;5009506;28;20052;-66
2022/06/05 02:53:16;;;;;;;16.88;12.38;;;13.30;99.90;;;;;;4994488;28;20034;-66
2022/06/05 02:55:42;;;;;;;17.90;12.45;;;13.30;99.90;;;;;;4998651;28;20422;-71
2022/06/05 02:58:09;;;;;;;17.52;13.43;;;13.30;99.90;;;;;;5009610;28;20045;-66
2022/06/05 03:00:38;;;;;;;20.85;13.07;;;13.30;99.90;;;;;;4993047;28;20037;-67
2022/06/05 03:05:49;;;;;;;18.95;13.10;;;13.30;99.90;;;;;;4992290;28;20432;-72
2022/06/05 03:08:16;;;;;;;19.98;12.95;;;13.30;99.90;;;;;;4981892;28;20038;-67
2022/06/05 03:10:45;;;;;;;21.00;12.65;;;13.30;99.90;;;;;;4977792;28;20101;-68
2022/06/05 03:13:13;;;;;;;17.80;12.93;;;13.30;99.90;;;;;;4988333;28;20042;-66
2022/06/05 03:15:41;;;;;;;19.85;13.38;;;13.30;99.90;;;;;;4996734;28;20046;-66
2022/06/05 03:18:06;;;;;;;19.70;13.85;;;13.20;99.90;;;;;;5013537;28;20069;-66
2022/06/05 03:20:33;;;;;;;21.33;13.32;;;13.20;99.90;;;;;;4993117;28;20074;-66
2022/06/05 03:22:59;;;;;;;19.15;12.55;;;13.20;99.90;;;;;;4991585;28;20121;-68
2022/06/05 03:25:25;;;;;;;19.25;13.23;;;13.30;99.90;;;;;;4986275;28;20114;-70
2022/06/05 03:27:52;;;;;;;16.73;12.93;;;13.20;99.90;;;;;;5000049;28;20465;-68
2022/06/05 03:30:18;;;;;;;18.92;13.00;;;13.20;99.90;;;;;;4995842;28;20089;-68
2022/06/05 03:32:44;;;;;;;19.52;13.27;;;13.20;99.90;;;;;;4985358;28;20557;-69
2022/06/05 03:35:12;;;;;;;20.88;12.73;;;13.20;99.90;;;;;;4981227;28;20050;-66
2022/06/05 03:37:37;;;;;;;22.05;13.23;;;13.20;99.90;;;;;;4996881;28;20113;-69
2022/06/05 03:40:15;;;;;;;19.95;13.57;;;13.20;99.90;;;;;;4997676;28;20038;-66
2022/06/05 03:42:41;;;;;;;19.75;13.82;;;13.20;99.90;;;;;;4976242;28;20129;-65
2022/06/05 03:45:12;;;;;;;18.67;13.13;;;13.20;99.90;;;;;;5002218;28;20041;-65
2022/06/05 03:47:38;;;;;;;16.83;13.05;;;13.20;99.90;;;;;;5002021;28;20109;-66
2022/06/05 03:50:05;;;;;;;21.52;13.68;;;13.20;99.90;;;;;;4997715;28;20118;-67
2022/06/05 03:52:31;;;;;;;20.02;13.85;;;13.20;99.90;;;;;;5007165;28;20056;-66
2022/06/05 03:54:56;;;;;;;17.67;12.68;;;13.20;99.90;;;;;;4968047;28;20488;-66
2022/06/05 03:57:22;;;;;;;20.20;13.18;;;13.10;99.90;;;;;;4980523;28;20042;-70
2022/06/05 03:59:48;;;;;;;19.30;12.48;;;13.10;99.90;;;;;;5000776;28;20045;-66
2022/06/05 04:02:14;;;;;;;19.83;12.68;;;13.10;99.90;;;;;;5010543;28;20054;-66
2022/06/05 04:04:40;;;;;;;18.98;12.90;;;13.20;99.90;;;;;;4987482;28;20084;-66
2022/06/05 04:07:06;;;;;;;18.13;12.10;;;13.10;99.90;;;;;;5001169;28;20159;-66
2022/06/05 04:09:31;;;;;;;22.27;13.90;;;13.20;99.90;;;;;;4992986;28;20025;-69
2022/06/05 04:11:57;;;;;;;20.80;13.73;;;13.20;99.90;;;;;;5005111;28;20205;-66
2022/06/05 04:14:23;;;;;;;18.58;13.15;;;13.20;99.90;;;;;;4997951;28;20401;-68
2022/06/05 04:16:48;;;;;;;18.17;13.30;;;13.20;99.90;;;;;;4998553;28;20515;-71
2022/06/05 04:19:14;;;;;;;20.75;12.70;;;13.20;99.90;;;;;;5002377;28;20423;-67
2022/06/05 04:21:44;;;;;;;20.63;13.65;;;13.20;99.90;;;;;;5008138;28;20044;-69
2022/06/05 04:24:11;;;;;;;17.88;13.30;;;13.20;99.90;;;;;;4990412;28;20151;-70
2022/06/05 04:26:38;;;;;;;22.52;13.60;;;13.30;99.90;;;;;;4986217;28;20050;-67
2022/06/05 04:29:04;;;;;;;18.08;13.02;;;13.30;99.90;;;;;;5012812;28;20033;-68
2022/06/05 04:31:36;;;;;;;19.60;13.40;;;13.30;99.90;;;;;;5001169;28;20042;-67
2022/06/05 04:34:05;;;;;;;18.85;13.55;;;13.30;99.90;;;;;;5003141;28;20078;-67
2022/06/05 04:36:31;;;;;;;20.75;13.90;;;13.40;99.90;;;;;;4990912;28;20042;-67
2022/06/05 04:38:57;;;;;;;20.58;13.93;;;13.40;99.90;;;;;;4974618;28;20042;-67
2022/06/05 04:41:24;;;;;;;16.38;13.20;;;13.40;99.90;;;;;;4994656;28;20041;-67
2022/06/05 04:43:52;;;;;;;23.80;13.65;;;13.40;99.90;;;;;;5001936;28;20070;-68
2022/06/05 04:46:20;;;;;;;19.95;13.57;;;13.50;99.90;;;;;;5008581;28;20033;-68
2022/06/05 04:48:46;;;;;;;19.45;13.13;;;13.50;99.90;;;;;;4991042;28;20065;-67
2022/06/05 04:51:15;;;;;;;18.63;13.18;;;13.50;99.90;;;;;;4992944;28;20069;-67
2022/06/05 04:53:41;;;;;;;19.20;14.00;;;13.50;99.90;;;;;;4991745;28;20095;-67
2022/06/05 04:56:10;;;;;;;19.80;14.23;;;13.50;99.90;;;;;;5005124;28;20072;-68
2022/06/05 04:58:36;;;;;;;18.83;13.63;;;13.60;99.90;;;;;;5007905;28;20129;-67
2022/06/05 05:01:01;;;;;;;19.27;13.77;;;13.60;99.90;;;;;;4993530;28;20120;-68
2022/06/05 05:03:27;;;;;;;17.42;13.77;;;13.60;99.90;;;;;;5012687;28;20294;-66
2022/06/05 05:05:53;;;;;;;21.15;13.27;;;13.70;99.90;;;;;;5004159;28;20034;-67
2022/06/05 05:08:19;;;;;;;18.95;12.80;;;13.70;99.90;;;;;;5002403;28;20121;-66
2022/06/05 05:10:46;;;;;;;18.85;12.35;;;13.70;99.90;;;;;;4991125;28;20046;-65
2022/06/05 05:13:11;;;;;;;17.95;12.65;;;13.80;99.90;;;;;;5006986;28;20038;-65
2022/06/05 05:15:37;;;;;;;18.27;12.45;;;13.90;99.90;;;;;;4989549;28;20065;-65
2022/06/05 05:18:03;;;;;;;18.70;12.95;;;13.90;99.90;;;;;;4995159;28;20374;-65
2022/06/05 05:20:29;;;;;;;17.98;12.43;;;13.90;99.90;;;;;;5022554;28;20556;-65
2022/06/05 05:22:55;;;;;;;17.23;12.27;;;13.90;99.90;;;;;;4987982;28;20046;-68
2022/06/05 05:25:21;;;;;;;18.17;13.23;;;14.00;99.90;;;;;;5008091;28;20042;-69
2022/06/05 05:27:47;;;;;;;18.33;12.13;;;14.00;99.90;;;;;;5021366;28;20116;-67
2022/06/05 05:30:13;;;;;;;16.92;12.57;;;14.00;99.90;;;;;;5012262;28;20125;-69
2022/06/05 05:32:38;;;;;;;20.23;13.35;;;14.10;99.90;;;;;;4990043;28;20116;-66
2022/06/05 05:35:06;;;;;;;17.10;12.45;;;14.00;99.90;;;;;;4996952;28;20046;-67
2022/06/05 05:37:32;;;;;;;19.45;12.02;;;14.10;99.90;;;;;;4994427;28;20056;-66
2022/06/05 05:42:41;;;;;;;17.33;12.60;;;14.20;99.90;;;;;;4998274;28;20045;-66
2022/06/05 05:45:08;;;;;;;16.90;12.43;;;14.20;99.90;;;;;;4999752;28;20121;-66
2022/06/05 05:47:34;;;;;;;16.02;11.82;;;14.30;99.90;;;;;;5003109;28;20222;-66
2022/06/05 05:50:11;;;;;;;20.60;12.88;;;14.40;99.90;;;;;;5001127;28;20093;-65
2022/06/05 05:52:37;;;;;;;19.83;12.68;;;14.40;99.90;;;;;;4999680;28;20038;-66
2022/06/05 05:55:04;;;;;;;16.73;12.25;;;14.50;99.90;;;;;;4997478;28;20088;-67
2022/06/05 05:57:30;;;;;;;15.82;12.20;;;14.60;99.90;;;;;;4977277;28;20440;-66
2022/06/05 06:02:31;;;;;;;18.00;11.65;;;14.70;99.90;;;;;;5008590;28;20069;-66
2022/06/05 06:04:57;;;;;;;16.17;11.95;;;14.70;99.90;;;;;;5001034;28;20472;-66
2022/06/05 06:07:23;;;;;;;15.38;11.55;;;14.80;99.90;;;;;;4983224;28;20613;-66
2022/06/05 06:09:49;;;;;;;16.90;11.75;;;14.80;99.90;;;;;;4987215;28;20042;-66
2022/06/05 06:12:14;;;;;;;15.80;11.82;;;14.90;99.90;;;;;;5000091;28;20044;-66
2022/06/05 06:14:40;;;;;;;14.88;10.77;;;14.90;99.90;;;;;;5002864;28;20104;-66
2022/06/05 06:17:06;;;;;;;14.30;11.85;;;15.00;99.90;;;;;;4991389;28;20073;-66
2022/06/05 06:19:32;;;;;;;15.82;11.05;;;15.10;99.90;;;;;;5011123;28;20088;-66
2022/06/05 06:21:57;;;;;;;17.23;11.43;;;15.10;99.90;;;;;;4993688;28;20048;-66
2022/06/05 06:24:23;;;;;;;15.73;11.45;;;15.20;99.90;;;;;;4994549;28;20479;-66
2022/06/05 06:26:49;;;;;;;13.88;10.55;;;15.30;99.90;;;;;;5010680;28;20472;-66
2022/06/05 06:29:14;;;;;;;17.33;11.13;;;15.30;99.90;;;;;;4992598;28;20038;-66
2022/06/05 06:31:41;;;;;;;17.65;11.50;;;15.40;99.90;;;;;;4994627;28;20104;-66
2022/06/05 06:34:08;;;;;;;14.18;11.32;;;15.40;99.90;;;;;;4977263;28;20037;-66
2022/06/05 06:36:34;;;;;;;14.93;10.32;;;15.50;99.90;;;;;;4994473;28;20040;-66
2022/06/05 06:39:00;;;;;;;14.35;11.30;;;15.50;99.90;;;;;;4991774;28;20411;-66
2022/06/05 06:41:26;;;;;;;16.38;11.23;;;15.60;99.90;;;;;;4992721;28;20057;-66
2022/06/05 06:43:52;;;;;;;15.50;11.00;;;15.70;99.90;;;;;;4993632;28;20038;-66
2022/06/05 06:46:19;;;;;;;17.08;10.70;;;15.80;99.90;;;;;;4991644;28;20052;-66
2022/06/05 06:48:48;;;;;;;13.48;10.43;;;15.80;99.90;;;;;;4997782;28;20038;-66
2022/06/05 06:51:16;;;;;;;14.70;10.57;;;15.90;99.90;;;;;;5005309;28;20084;-66
2022/06/05 06:53:43;;;;;;;14.50;11.13;;;15.90;99.90;;;;;;4997538;28;20096;-66
2022/06/05 06:56:18;;;;;;;13.98;9.93;;;16.00;99.90;;;;;;5009490;28;20038;-66
2022/06/05 06:58:47;;;;;;;15.68;11.45;;;16.10;99.90;;;;;;5007882;28;20117;-66
2022/06/05 07:01:13;;;;;;;14.35;10.90;;;16.10;99.90;;;;;;4996574;28;20137;-66
2022/06/05 07:03:40;;;;;;;11.98;9.60;;;16.20;99.90;;;;;;4992859;28;20037;-66
2022/06/05 07:06:10;;;;;;;15.68;10.60;;;16.30;99.90;;;;;;5007694;28;20038;-66
2022/06/05 07:08:36;;;;;;;12.57;10.05;;;16.30;99.90;;;;;;5004433;28;20496;-66
2022/06/05 07:11:05;;;;;;;13.77;10.38;;;16.40;99.90;;;;;;5004578;28;20045;-66
2022/06/05 07:13:31;;;;;;;13.32;10.63;;;16.40;99.90;;;;;;5012806;28;20386;-66
2022/06/05 07:15:57;;;;;;;12.88;10.27;;;16.50;99.90;;;;;;5016279;28;20033;-66
2022/06/05 07:18:23;;;;;;;16.13;10.48;;;16.60;99.90;;;;;;4987895;28;20041;-66
2022/06/05 07:20:49;;;;;;;12.90;10.23;;;16.60;99.90;;;;;;4992472;28;20034;-66
2022/06/05 07:23:15;;;;;;;15.88;10.52;;;16.70;99.90;;;;;;4994328;28;20400;-66
2022/06/05 07:25:49;;;;;;;12.40;9.40;;;16.80;99.90;;;;;;4991264;28;20046;-66
2022/06/05 07:28:16;;;;;;;12.45;9.32;;;16.90;99.90;;;;;;4990829;28;20048;-66
2022/06/05 07:30:49;;;;;;;14.15;9.98;;;16.90;99.90;;;;;;4989559;28;20555;-66
2022/06/05 07:33:16;;;;;;;14.30;9.38;;;17.00;99.90;;;;;;4989771;28;20041;-66
2022/06/05 07:35:42;;;;;;;12.65;9.68;;;17.10;99.90;;;;;;4990474;28;20050;-66
2022/06/05 07:38:09;;;;;;;13.82;9.45;;;17.10;99.90;;;;;;5002140;28;20113;-66
2022/06/05 07:40:42;;;;;;;13.75;9.27;;;17.10;99.90;;;;;;5009568;28;20067;-66
2022/06/05 07:43:10;;;;;;;12.55;9.10;;;17.10;99.90;;;;;;5010864;28;20415;-66
2022/06/05 07:45:37;;;;;;;15.27;9.45;;;17.20;99.90;;;;;;5010419;28;20091;-66
2022/06/05 07:48:03;;;;;;;13.07;9.18;;;17.20;99.90;;;;;;4993705;28;20092;-66
2022/06/05 07:50:29;;;;;;;12.57;9.68;;;17.30;99.90;;;;;;4990907;28;20057;-66
2022/06/05 07:55:38;;;;;;;10.32;8.55;;;17.40;99.90;;;;;;4990474;28;20049;-66
2022/06/05 07:58:04;;;;;;;11.65;8.88;;;17.40;99.90;;;;;;5003089;28;20030;-66
2022/06/05 08:00:31;;;;;;;12.75;9.23;;;17.50;99.90;;;;;;5005893;28;20037;-66
2022/06/05 08:02:57;;;;;;;11.75;9.38;;;17.50;99.90;;;;;;5002304;28;20042;-66
2022/06/05 08:05:22;;;;;;;12.40;8.85;;;17.60;99.90;;;;;;4984469;28;20045;-66
2022/06/05 08:07:48;;;;;;;11.93;8.32;;;17.70;99.90;;;;;;4980689;28;20121;-66
2022/06/05 08:10:14;;;;;;;13.32;9.05;;;17.70;99.90;;;;;;4999930;28;20026;-66
2022/06/05 08:12:39;;;;;;;12.63;8.48;;;17.80;99.90;;;;;;4997549;28;20072;-66
2022/06/05 08:15:08;;;;;;;9.73;8.00;;;17.90;99.90;;;;;;5003119;28;20034;-66
2022/06/05 08:17:35;;;;;;;11.40;7.90;;;17.90;99.90;;;;;;4995508;28;20307;-66
2022/06/05 08:20:01;;;;;;;11.00;8.75;;;18.00;99.90;;;;;;5000667;28;20303;-66
2022/06/05 08:22:28;;;;;;;13.82;8.85;;;18.10;99.90;;;;;;5003993;28;20050;-66
2022/06/05 08:24:54;;;;;;;11.07;8.35;;;18.10;99.90;;;;;;5007127;28;20038;-66
2022/06/05 08:27:23;;;;;;;10.55;7.78;;;18.20;99.90;;;;;;4986927;28;20476;-66
2022/06/05 08:29:56;;;;;;;11.73;8.10;;;18.40;99.90;;;;;;4982526;28;20050;-66
2022/06/05 08:32:24;;;;;;;12.02;7.80;;;18.40;99.90;;;;;;4980184;28;20751;-66
2022/06/05 08:34:50;;;;;;;9.32;7.45;;;18.50;99.90;;;;;;4985247;28;20084;-66
2022/06/05 08:43:19;;;;;;;11.43;7.90;;;18.80;99.90;;;;;;4984721;28;20081;-66
2022/06/05 08:46:01;;;;;;;11.18;7.95;;;19.10;99.90;;;;;;4982777;28;20061;-66
2022/06/05 08:48:35;;;;;;;8.48;7.13;;;19.40;99.90;;;;;;4985371;28;20052;-66
2022/06/05 08:51:23;;;;;;;8.75;7.15;;;19.60;99.90;;;;;;4990875;28;20041;-66
2022/06/05 08:53:58;;;;;;;8.77;7.68;;;19.80;99.90;;;;;;5003357;28;20065;-66
2022/06/05 08:56:52;;;;;;;10.30;7.22;;;20.10;99.90;;;;;;5002386;28;20045;-66
2022/06/05 08:59:46;;;;;;;9.65;7.10;;;20.20;99.90;;;;;;5001866;28;20133;-66
2022/06/05 09:02:23;;;;;;;10.25;7.63;;;20.40;99.90;;;;;;5005275;28;20069;-66
2022/06/05 09:05:00;;;;;;;10.43;7.13;;;20.50;99.90;;;;;;4997732;28;20128;-66
2022/06/05 09:07:32;;;;;;;9.70;6.47;;;20.60;99.90;;;;;;4983528;28;20052;-66
2022/06/05 09:10:13;;;;;;;9.15;7.10;;;20.70;99.90;;;;;;4994296;28;20410;-66
2022/06/05 09:12:47;;;;;;;8.55;6.32;;;20.90;99.90;;;;;;4991653;28;20472;-66
2022/06/05 09:15:33;;;;;;;8.57;6.95;;;20.90;99.90;;;;;;5007565;28;20408;-66
2022/06/05 09:18:01;;;;;;;8.77;7.40;;;21.00;99.90;;;;;;4984947;28;20054;-66
2022/06/05 09:20:51;;;;;;;8.50;7.10;;;21.00;99.90;;;;;;4991488;28;20053;-66
2022/06/05 09:23:40;;;;;;;9.27;6.65;;;21.10;99.90;;;;;;4984047;28;20053;-66
2022/06/05 09:26:16;;;;;;;8.82;7.07;;;21.20;99.90;;;;;;4941479;28;20459;-66
2022/06/05 09:29:08;;;;;;;9.90;6.68;;;21.20;99.90;;;;;;4989545;28;20038;-66
2022/06/05 09:32:08;;;;;;;8.65;6.50;;;21.20;99.90;;;;;;4970717;28;20042;-66
2022/06/05 09:34:49;;;;;;;10.85;6.90;;;21.20;99.90;;;;;;4993037;28;20053;-66
2022/06/05 09:37:25;;;;;;;8.20;6.80;;;21.20;99.90;;;;;;5009617;28;20041;-66
2022/06/05 09:40:00;;;;;;;9.25;6.65;;;21.20;99.90;;;;;;4993830;28;20567;-66
2022/06/05 09:42:54;;;;;;;8.52;6.47;;;21.20;99.90;;;;;;4991418;28;20041;-66
2022/06/05 09:46:08;;;;;;;8.02;6.60;;;21.20;99.90;;;;;;4991233;28;20125;-66
2022/06/05 09:48:47;;;;;;;7.55;6.75;;;21.20;99.90;;;;;;5010920;28;20392;-66
2022/06/05 09:51:16;;;;;;;8.73;6.68;;;21.10;99.90;;;;;;5009423;28;20188;-66
2022/06/05 09:53:54;;;;;;;8.15;7.25;;;21.20;99.90;;;;;;5008797;28;20046;-66
2022/06/05 09:56:34;;;;;;;8.95;7.20;;;21.20;99.90;;;;;;5006593;28;20042;-66
2022/06/05 09:59:25;;;;;;;9.40;7.72;;;21.30;99.90;;;;;;4993366;28;20511;-66
2022/06/05 10:01:55;;;;;;;9.02;6.68;;;21.30;99.90;;;;;;5005686;28;20038;-66
2022/06/05 10:04:22;;;;;;;8.50;6.68;;;21.30;99.90;;;;;;4993071;28;20045;-66
2022/06/05 10:06:55;;;;;;;8.23;6.82;;;21.30;99.90;;;;;;5011542;28;20095;-66
2022/06/05 10:09:27;;;;;;;8.43;6.43;;;21.40;99.90;;;;;;4988934;28;20081;-66
2022/06/05 10:12:03;;;;;;;9.02;6.47;;;21.40;99.90;;;;;;4992290;28;20500;-66
2022/06/05 10:14:50;;;;;;;9.73;6.40;;;21.50;99.90;;;;;;5002533;28;20121;-66
2022/06/05 10:17:31;;;;;;;10.10;7.20;;;21.50;99.90;;;;;;4983643;28;20053;-66
2022/06/05 10:20:17;;;;;;;7.78;6.78;;;21.50;99.90;;;;;;5005978;28;20408;-65
2022/06/05 10:23:14;;;;;;;10.30;6.70;;;21.50;99.90;;;;;;4984003;28;20120;-66
2022/06/05 10:26:17;;;;;;;9.35;7.00;;;21.60;99.90;;;;;;5014138;28;20087;-65
2022/06/05 10:28:45;;;;;;;10.20;6.88;;;21.60;99.90;;;;;;5007849;28;20117;-66
2022/06/05 10:31:27;;;;;;;8.95;6.63;;;21.70;99.90;;;;;;5011886;28;20286;-66
2022/06/05 10:34:16;;;;;;;8.50;6.97;;;21.70;99.90;;;;;;5010442;28;20034;-66
2022/06/05 10:37:27;;;;;;;10.00;7.13;;;21.70;99.90;;;;;;4989309;28;20052;-66
2022/06/05 10:40:12;;;;;;;9.18;6.35;;;21.70;99.90;;;;;;5007304;28;20125;-66
2022/06/05 10:42:59;;;;;;;8.85;6.85;;;21.70;99.90;;;;;;4988922;28;20054;-66
2022/06/05 10:45:51;;;;;;;7.38;6.47;;;21.70;99.90;;;;;;4990225;28;20067;-66
2022/06/05 10:48:28;;;;;;;9.07;7.13;;;21.70;99.90;;;;;;5004765;28;20117;-66
2022/06/05 10:51:17;;;;;;;8.20;6.68;;;21.70;99.90;;;;;;5007918;28;20066;-66
2022/06/05 10:53:49;;;;;;;9.68;6.47;;;21.70;99.90;;;;;;4990546;28;20089;-66
2022/06/05 10:56:32;;;;;;;7.97;7.05;;;21.70;99.90;;;;;;5007120;28;20529;-66
2022/06/05 10:59:18;;;;;;;7.20;6.28;;;21.70;99.90;;;;;;5008604;28;20119;-66
2022/06/05 11:02:15;;;;;;;7.78;6.53;;;21.70;99.90;;;;;;5006546;28;20053;-66
2022/06/05 11:05:15;;;;;;;11.50;7.10;;;21.60;99.90;;;;;;4994941;28;20050;-66
2022/06/05 11:08:11;;;;;;;9.52;6.13;;;21.70;99.90;;;;;;4978684;28;20050;-66
2022/06/05 11:13:52;;;;;;;9.80;6.70;;;21.70;99.90;;;;;;5005024;28;21447;-66
2022/06/05 11:16:33;;;;;;;7.95;6.65;;;21.60;99.90;;;;;;4995850;28;20070;-66
2022/06/05 11:19:08;;;;;;;8.23;7.10;;;21.60;99.90;;;;;;4983941;28;20397;-66
2022/06/05 11:21:34;;;;;;;8.00;7.05;;;21.60;99.90;;;;;;5004624;28;20073;-66
2022/06/05 11:24:01;;;;;;;10.82;7.30;;;21.60;99.90;;;;;;5006522;28;20037;-66
2022/06/05 11:27:01;;;;;;;8.07;6.35;;;21.70;99.90;;;;;;4991144;28;20041;-66
2022/06/05 11:29:32;;;;;;;7.78;6.78;;;21.70;99.90;;;;;;5005954;28;20041;-66
2022/06/05 11:32:39;;;;;;;9.37;6.80;;;21.60;99.90;;;;;;4985384;28;20050;-66
2022/06/05 11:35:16;;;;;;;11.57;7.47;;;21.70;99.90;;;;;;4998677;28;20355;-66
2022/06/05 11:37:50;;;;;;;9.73;7.00;;;21.70;99.90;;;;;;4975517;28;20045;-66
2022/06/05 11:40:53;;;;;;;7.80;6.97;;;21.70;99.90;;;;;;4997590;28;20034;-66
2022/06/05 11:43:29;;;;;;;9.95;7.47;;;21.60;99.90;;;;;;4977844;28;20069;-66
2022/06/05 11:46:19;;;;;;;10.48;7.43;;;21.70;99.90;;;;;;4997391;28;20030;-66
2022/06/05 11:49:42;;;;;;;8.02;7.20;;;21.70;99.90;;;;;;5001331;28;20125;-66
2022/06/05 11:52:30;;;;;;;10.77;7.45;;;21.70;99.90;;;;;;4904129;29;20106;-66
2022/06/05 11:55:27;;;;;;;7.53;6.78;;;21.70;99.90;;;;;;4929922;29;20482;-66
2022/06/05 11:57:56;;;;;;;11.15;7.35;;;21.70;99.90;;;;;;4988867;28;20467;-66
2022/06/05 12:03:16;;;;;;;7.80;7.10;;;21.70;99.90;;;;;;4951868;28;20051;-69
2022/06/05 12:05:46;;;;;;;8.43;7.22;;;21.70;99.90;;;;;;4933521;29;20389;-65
2022/06/05 12:08:16;;;;;;;8.63;7.43;;;21.60;99.90;;;;;;4912205;29;20047;-64
2022/06/05 12:11:04;;;;;;;10.13;7.03;;;21.60;99.90;;;;;;4943138;28;20043;-65
2022/06/05 12:13:49;;;;;;;8.68;7.18;;;21.50;99.90;;;;;;4955079;28;20435;-65
2022/06/05 12:16:17;;;;;;;9.07;7.03;;;21.50;99.90;;;;;;4960310;28;20053;-64
2022/06/05 12:18:53;;;;;;;7.82;6.30;;;21.50;99.90;;;;;;4945315;28;20034;-64
2022/06/05 12:21:56;;;;;;;9.13;6.97;;;21.50;99.90;;;;;;4951048;28;20034;-64
2022/06/05 12:24:39;;;;;;;9.10;6.90;;;21.50;99.90;;;;;;4965528;28;20039;-64
2022/06/05 12:27:11;;;;;;;7.43;6.72;;;21.60;99.90;;;;;;4949647;28;20186;-64
2022/06/05 12:30:05;;;;;;;8.55;7.05;;;21.60;99.90;;;;;;4953744;28;20050;-65
2022/06/05 12:32:42;;;;;;;8.82;6.63;;;21.70;99.90;;;;;;4937025;28;20402;-66
2022/06/05 12:35:18;;;;;;;7.40;6.68;;;21.70;99.90;;;;;;4943846;28;20430;-65
2022/06/05 12:37:55;;;;;;;7.88;7.00;;;21.70;99.90;;;;;;4947742;28;20043;-69
2022/06/05 12:40:29;;;;;;;7.90;6.80;;;21.70;99.90;;;;;;4953779;28;20092;-67
2022/06/05 12:43:04;;;;;;;7.30;6.60;;;21.70;99.90;;;;;;4951095;28;20408;-70
2022/06/05 12:45:32;;;;;;;8.27;7.18;;;21.80;99.90;;;;;;4956039;28;20050;-64
2022/06/05 12:48:20;;;;;;;7.00;6.30;;;21.80;99.90;;;;;;4965491;28;20124;-64
2022/06/05 12:50:51;;;;;;;7.80;6.60;;;21.80;99.90;;;;;;4946690;28;20038;-65
2022/06/05 12:53:24;;;;;;;8.55;6.78;;;21.90;99.90;;;;;;4963786;28;20441;-66
2022/06/05 12:55:59;;;;;;;8.50;6.78;;;21.90;99.90;;;;;;4958056;28;20043;-66
2022/06/05 12:58:46;;;;;;;7.65;6.70;;;21.90;99.90;;;;;;4950407;28;20486;-66
2022/06/05 13:01:28;;;;;;;8.68;6.43;;;22.00;99.90;;;;;;4949752;28;20035;-68
2022/06/05 13:03:53;;;;;;;;;;;22.00;99.90;;;;;;4950852;28;20082;-66
2022/06/05 13:06:43;;;;;;;7.70;6.90;;;22.00;99.90;;;;;;4934450;28;20036;-68
2022/06/05 13:09:30;;;;;;;7.18;6.35;;;22.10;99.90;;;;;;4954878;28;20038;-64
2022/06/05 13:12:01;;;;;;;8.00;6.78;;;22.20;99.90;;;;;;4970891;28;20046;-65
2022/06/05 13:14:46;;;;;;;7.68;6.88;;;22.20;99.90;;;;;;4956898;28;20511;-65
2022/06/05 13:17:42;;;;;;;6.85;6.15;;;22.30;99.90;;;;;;4940284;28;20080;-69
2022/06/05 13:20:52;;;;;;;7.45;6.65;;;22.40;99.90;;;;;;4955493;28;20108;-67
2022/06/05 13:23:34;;;;;;;11.27;6.53;;;22.50;99.90;;;;;;4950655;28;20101;-65
2022/06/05 13:26:01;;;;;;;7.35;5.97;;;22.60;99.90;;;;;;4965337;28;20039;-69
2022/06/05 13:28:57;;;;;;;6.88;6.18;;;22.70;99.90;;;;;;4955108;28;20047;-65
2022/06/05 13:31:41;;;;;;;9.35;6.65;;;22.90;99.90;;;;;;4968565;28;20049;-65